Briefing drone pour Le bosc-roger-en-roumois

Rechercher une autre localisation

Conditions de vol :


Nous sommes le : Vendredi 26 février 2021
Il est 00:25 UTC (01:25 LT)

Lever de soleil : 06:17 UTC (07:17 LT)
Coucher de soleil : 18:00 UTC (19:00 LT)

Météo

L'essentiel des conditions de vol

VIGILANCE MÉTÉO FRANCE - Eure (27)
Pas de vigilances particulieres
CARTE TEMSI
CARTES DES FRONTS
METAR de LFOP
LFOP 260000Z AUTO 32005KT CAVOK 08/05 Q1033

Date d'émission: 26/02/2021
Heure d'émission: 00:00 UTC
Vent: 320° pour 5 KT (9 km/h)
Visibilité horizontale: > 10 km
Plafond : Plafond et visibilité OK (CAVOK)
Température: 8 °C
Point de rosée: 5 °C
Humidité: 81%
Pression (QNH): 1033 hPa
TAF de LFOP
LFOP 252101Z 2521/2618 CNL

Conditions prévues :

Heure d'émission : Bulletin éffectué le 25 à 21:00 UTC
Prévision : Valide du 25 a 21:00 UTC au 26 a 18:00 UTC
Nuages : à 0ft (0 m)
WEBCAM POUR LE BOSC-ROGER-EN-ROUMOIS

Réglementation

Voler en sécurité

CARTES AERONAUTIQUE 1/500.000
CARTES VAC (LFOP)
SUP AIP




Chargement des AIP...
NOTAM (LE BOSC-ROGER-EN-ROUMOIS + Terrain à proximité / FIR )




Chargement des NOTAMS...
CONTACT PREFECTURE 27


Avertissement : Les données mises à disposition sont indicatives. Oxygène Drone ne pourra être tenu responsable de dégâts causés aux biens et aux personnes.